Time;durP1;ratioP1;P1;durP2;ratioP2;P2;SDS_P1;SDS_P2;PMS_P1;PMS_P2;Temp;Humidity;BMP_temperature;BMP_pressure;BME280_temperature;BME280_humidity;BME280_pressure;Samples;Min_cycle;Max_cycle;Signal;HPM_P1;HPM_P2
2022/09/24 00:00:00;;;;;;;13.20;7.15;;;;;;;5.41;100.00;98300.13;2644297;27;20047;-80
2022/09/24 00:01:18;;;;;;;15.35;7.95;;;;;;;5.37;100.00;98293.25;2642860;27;20051;-80
2022/09/24 00:02:34;;;;;;;12.35;7.57;;;;;;;5.32;100.00;98295.91;2641499;27;20593;-80
2022/09/24 00:03:56;;;;;;;12.95;8.07;;;;;;;5.35;100.00;98295.03;2641455;27;20048;-80
2022/09/24 00:05:11;;;;;;;10.70;7.18;;;;;;;5.41;100.00;98289.75;2642185;27;20055;-80
2022/09/24 00:06:29;;;;;;;11.15;7.22;;;;;;;5.40;100.00;98292.38;2641692;27;20043;-80
2022/09/24 00:07:44;;;;;;;12.45;7.10;;;;;;;5.47;100.00;98292.31;2642516;27;20082;-79
2022/09/24 00:09:00;;;;;;;12.02;7.35;;;;;;;5.50;100.00;98294.00;2641655;27;20044;-80
2022/09/24 00:10:15;;;;;;;12.45;7.38;;;;;;;5.53;100.00;98288.78;2642149;27;20375;-80
2022/09/24 00:11:31;;;;;;;11.60;7.07;;;;;;;5.50;100.00;98292.28;2643205;27;20059;-81
2022/09/24 00:12:47;;;;;;;12.20;7.28;;;;;;;5.50;100.00;98288.81;2642237;27;20512;-81
2022/09/24 00:14:03;;;;;;;16.20;8.10;;;;;;;5.37;100.00;98290.66;2643480;27;20614;-80
2022/09/24 00:15:18;;;;;;;14.43;8.60;;;;;;;5.40;100.00;98292.38;2631338;28;20044;-80
2022/09/24 00:16:34;;;;;;;18.85;9.00;;;;;;;5.41;100.00;98292.34;2634065;27;20177;-80
2022/09/24 00:17:50;;;;;;;15.18;8.10;;;;;;;5.50;100.00;98289.69;2643653;27;20510;-80
2022/09/24 00:19:05;;;;;;;12.68;8.23;;;;;;;5.54;100.00;98290.50;2644042;27;20398;-80
2022/09/24 00:20:21;;;;;;;13.98;7.68;;;;;;;5.63;100.00;98286.97;2641364;27;20490;-80
2022/09/24 00:21:38;;;;;;;14.02;8.23;;;;;;;5.58;100.00;98288.72;2641013;27;20040;-80
2022/09/24 00:22:54;;;;;;;12.60;7.05;;;;;;;5.49;100.00;98281.88;2644054;27;20068;-82
2022/09/24 00:27:22;;;;;;;13.20;6.95;;;;;;;5.41;100.00;98284.56;2643636;27;20588;-80
2022/09/24 00:28:38;;;;;;;14.73;7.63;;;;;;;5.29;100.00;98280.34;2641020;27;20046;-81
2022/09/24 00:29:53;;;;;;;12.00;6.80;;;;;;;5.20;100.00;98285.63;2642294;27;20507;-80
2022/09/24 00:31:09;;;;;;;12.25;7.63;;;;;;;5.18;100.00;98288.25;2640231;27;20211;-79
2022/09/24 00:32:25;;;;;;;13.63;7.28;;;;;;;5.05;100.00;98277.09;2641892;27;20050;-80
2022/09/24 00:33:40;;;;;;;11.27;6.82;;;;;;;4.99;100.00;98290.13;2643306;27;20055;-79
2022/09/24 00:34:56;;;;;;;12.90;7.20;;;;;;;5.04;100.00;98290.09;2643176;27;20051;-80
2022/09/24 00:36:14;;;;;;;11.93;6.78;;;;;;;5.08;100.00;98273.63;2642929;27;20047;-79
2022/09/24 00:37:30;;;;;;;10.52;6.88;;;;;;;5.18;100.00;98277.88;2642005;27;20056;-80
2022/09/24 00:38:56;;;;;;;12.32;6.78;;;;;;;5.23;100.00;98276.06;2643827;27;20055;-80
2022/09/24 00:40:14;;;;;;;12.27;6.68;;;;;;;5.18;100.00;98274.41;2642273;27;20096;-80
2022/09/24 00:41:32;;;;;;;11.60;6.82;;;;;;;5.19;100.00;98268.34;2644522;27;20096;-81
2022/09/24 00:42:48;;;;;;;11.75;6.88;;;;;;;5.25;100.00;98267.41;2641995;27;20044;-81
2022/09/24 00:44:37;;;;;;;10.93;6.70;;;;;;;5.06;100.00;98267.59;2642665;27;20138;-78
2022/09/24 00:46:00;;;;;;;10.98;6.75;;;;;;;5.21;100.00;98266.56;2641065;27;20161;-82
2022/09/24 00:47:38;;;;;;;10.68;6.57;;;;;;;5.31;100.00;98270.81;2641019;27;20097;-79
2022/09/24 00:48:58;;;;;;;12.80;6.30;;;;;;;5.37;100.00;98273.34;2641727;27;20051;-78
2022/09/24 00:50:33;;;;;;;11.25;6.55;;;;;;;5.35;100.00;98269.91;2629739;28;20047;-78
2022/09/24 00:51:51;;;;;;;11.82;6.97;;;;;;;5.39;100.00;98269.91;2638505;27;20099;-79
2022/09/24 00:53:08;;;;;;;10.52;6.53;;;;;;;5.41;100.00;98266.38;2644048;27;20047;-79
2022/09/24 00:54:27;;;;;;;11.20;6.82;;;;;;;5.44;100.00;98265.50;2643243;27;20051;-79
2022/09/24 00:55:46;;;;;;;9.73;6.25;;;;;;;5.41;100.00;98265.53;2642403;27;20050;-79
2022/09/24 00:57:02;;;;;;;11.88;6.28;;;;;;;5.34;100.00;98267.34;2641034;27;20649;-80
2022/09/24 00:58:18;;;;;;;9.90;6.07;;;;;;;5.41;100.00;98268.13;2642552;28;20413;-83
2022/09/24 00:59:35;;;;;;;8.80;6.07;;;;;;;5.43;100.00;98264.63;2642255;28;20047;-80
2022/09/24 01:00:56;;;;;;;11.65;6.40;;;;;;;5.40;100.00;98267.25;2641320;28;20047;-80
2022/09/24 01:02:11;;;;;;;9.90;6.70;;;;;;;5.45;100.00;98265.50;2641930;27;20091;-79
2022/09/24 01:03:29;;;;;;;9.73;6.07;;;;;;;5.43;100.00;98269.81;2644478;28;20043;-79
2022/09/24 01:04:45;;;;;;;23.02;7.03;;;;;;;5.45;100.00;98269.81;2643873;28;21126;-79
2022/09/24 01:06:01;;;;;;;96.40;8.43;;;;;;;5.53;100.00;98268.03;2640652;28;20210;-80
2022/09/24 01:07:16;;;;;;;21.60;6.68;;;;;;;5.54;100.00;98274.94;2643877;28;20050;-80
2022/09/24 01:08:32;;;;;;;10.85;6.13;;;;;;;5.47;100.00;98265.47;2643421;28;20054;-79
2022/09/24 01:09:48;;;;;;;9.45;6.35;;;;;;;5.43;100.00;98263.78;2643627;28;20043;-79
2022/09/24 01:11:18;;;;;;;11.57;6.32;;;;;;;5.33;100.00;98261.28;2644323;28;20051;-79
2022/09/24 01:12:44;;;;;;;11.15;6.28;;;;;;;5.24;100.00;98261.38;2640374;28;20047;-80
2022/09/24 01:14:03;;;;;;;8.88;6.00;;;;;;;5.13;100.00;98256.25;2641919;28;20130;-79
2022/09/24 01:15:27;;;;;;;13.70;6.50;;;;;;;5.14;100.00;98252.78;2642915;28;20043;-79
2022/09/24 01:17:01;;;;;;;10.30;6.38;;;;;;;5.17;100.00;98251.91;2641004;28;20051;-79
2022/09/24 01:18:49;;;;;;;9.43;6.25;;;;;;;5.13;100.00;98252.81;2642868;28;20052;-85
2022/09/24 01:20:28;;;;;;;12.48;6.68;;;;;;;5.31;100.00;98251.81;2641346;28;20485;-79
2022/09/24 01:21:51;;;;;;;10.50;6.28;;;;;;;5.35;100.00;98248.28;2640716;28;20059;-79
2022/09/24 01:23:40;;;;;;;11.18;7.18;;;;;;;5.34;100.00;98249.16;2642107;28;20043;-79
2022/09/24 01:25:23;;;;;;;13.93;6.53;;;;;;;5.30;100.00;98250.06;2641600;28;20055;-79
2022/09/24 01:26:55;;;;;;;13.02;6.50;;;;;;;5.31;100.00;98249.19;2643118;28;20076;-79
2022/09/24 01:28:23;;;;;;;11.32;6.55;;;;;;;5.43;100.00;98245.63;2641949;28;20051;-80
2022/09/24 01:30:04;;;;;;;10.05;6.28;;;;;;;5.30;100.00;98248.31;2642563;28;20053;-79
2022/09/24 01:31:34;;;;;;;15.95;6.85;;;;;;;5.26;100.00;98248.38;2641356;28;20715;-81
2022/09/24 01:32:54;;;;;;;14.75;6.00;;;;;;;5.42;100.00;98246.50;2642036;28;20055;-80
2022/09/24 01:34:14;;;;;;;14.57;6.00;;;;;;;5.21;100.00;98244.09;2641003;28;20530;-79
2022/09/24 01:35:46;;;;;;;24.00;6.22;;;;;;;5.37;100.00;98243.94;2640769;28;20618;-79
2022/09/24 01:37:02;;;;;;;37.75;6.75;;;;;;;5.40;100.00;98245.66;2641090;28;20047;-79
2022/09/24 01:38:22;;;;;;;29.30;6.88;;;;;;;5.28;100.00;98247.50;2642051;28;20830;-79
2022/09/24 01:39:38;;;;;;;37.45;7.30;;;;;;;5.03;100.00;98239.06;2641012;28;20078;-79
2022/09/24 01:40:57;;;;;;;54.65;7.00;;;;;;;5.01;100.00;98249.47;2641738;28;20081;-80
2022/09/24 01:42:15;;;;;;;59.03;8.27;;;;;;;5.10;100.00;98240.72;2642544;28;20348;-81
2022/09/24 01:43:31;;;;;;;40.60;7.25;;;;;;;5.12;100.00;98241.56;2641043;27;20051;-79
2022/09/24 01:44:49;;;;;;;48.25;8.00;;;;;;;5.19;100.00;98247.56;2644544;27;20136;-79
2022/09/24 01:46:05;;;;;;;34.22;7.10;;;;;;;5.05;100.00;98232.13;2642950;27;20554;-80
2022/09/24 01:47:38;;;;;;;26.50;6.57;;;;;;;5.06;100.00;98246.84;2642925;27;20516;-79
2022/09/24 01:48:54;;;;;;;99.38;8.55;;;;;;;5.10;100.00;98248.50;2643889;27;20674;-81
2022/09/24 01:50:16;;;;;;;72.93;8.07;;;;;;;5.09;100.00;98252.81;2645768;27;20079;-79
2022/09/24 01:51:47;;;;;;;59.88;7.15;;;;;;;4.97;100.00;98252.09;2643264;27;20074;-79
2022/09/24 01:53:09;;;;;;;39.33;6.93;;;;;;;5.02;100.00;98240.81;2643521;27;20088;-80
2022/09/24 01:54:33;;;;;;;21.77;6.47;;;;;;;5.10;100.00;98245.91;2644059;27;20505;-79
2022/09/24 01:55:57;;;;;;;33.17;7.57;;;;;;;5.21;100.00;98241.50;2645947;27;20148;-79
2022/09/24 01:57:20;;;;;;;31.80;7.03;;;;;;;5.15;100.00;98236.34;2643675;27;20043;-79
2022/09/24 01:58:45;;;;;;;28.80;6.85;;;;;;;5.14;100.00;98244.16;2644828;27;20078;-79
2022/09/24 02:00:08;;;;;;;33.90;6.82;;;;;;;5.18;100.00;98238.94;2643820;27;20057;-79
2022/09/24 02:01:36;;;;;;;55.10;7.60;;;;;;;5.32;100.00;98243.13;2642354;27;20520;-79
2022/09/24 02:02:54;;;;;;;50.55;7.85;;;;;;;5.39;100.00;98241.34;2645393;27;20067;-79
2022/09/24 02:04:16;;;;;;;57.67;8.35;;;;;;;5.37;100.00;98237.00;2643523;27;20557;-80
2022/09/24 02:05:49;;;;;;;21.60;7.38;;;;;;;5.30;100.00;98235.34;2642486;27;20134;-80
2022/09/24 02:07:22;;;;;;;20.70;6.72;;;;;;;5.36;100.00;98235.28;2645380;27;20064;-78
2022/09/24 02:08:40;;;;;;;13.85;6.43;;;;;;;5.33;100.00;98243.09;2642670;27;20081;-80
2022/09/24 02:09:56;;;;;;;35.38;7.90;;;;;;;5.40;100.00;98237.88;2643739;27;20413;-79
2022/09/24 02:11:16;;;;;;;21.40;7.60;;;;;;;5.33;100.00;98235.31;2643764;27;20388;-79
2022/09/24 02:12:38;;;;;;;13.25;6.50;;;;;;;5.33;100.00;98234.47;2642333;27;20055;-79
2022/09/24 02:14:08;;;;;;;;;;;;;;;5.44;100.00;98236.94;2644776;27;20126;-79
2022/09/24 02:15:30;;;;;;;13.65;6.38;;;;;;;5.40;100.00;98236.09;2643508;27;19923;-80
2022/09/24 02:16:47;;;;;;;11.98;6.15;;;;;;;5.46;100.00;98237.78;2642462;27;20047;-79
2022/09/24 02:18:07;;;;;;;20.30;6.88;;;;;;;5.49;100.00;98237.75;2645859;27;20184;-80
2022/09/24 02:19:27;;;;;;;22.38;6.43;;;;;;;5.44;100.00;98232.59;2642878;27;20528;-81
2022/09/24 02:20:43;;;;;;;12.70;6.38;;;;;;;5.40;100.00;98237.88;2643648;27;20043;-79
2022/09/24 02:21:59;;;;;;;31.55;7.97;;;;;;;5.13;100.00;98237.25;2643629;27;20047;-78
2022/09/24 02:23:17;;;;;;;16.95;7.35;;;;;;;5.48;100.00;98228.25;2643403;27;20058;-80
2022/09/24 02:24:44;;;;;;;10.48;6.82;;;;;;;5.36;100.00;98226.63;2643673;27;20592;-81
2022/09/24 02:26:03;;;;;;;21.88;7.65;;;;;;;5.38;100.00;98227.47;2643519;27;20055;-81
2022/09/24 02:27:18;;;;;;;25.38;7.25;;;;;;;5.38;100.00;98227.47;2643943;27;20122;-80
2022/09/24 02:28:34;;;;;;;21.65;7.20;;;;;;;5.39;100.00;98224.00;2642657;27;20051;-80
2022/09/24 02:29:50;;;;;;;41.78;7.75;;;;;;;5.37;100.00;98220.56;2644194;27;20055;-81
2022/09/24 02:31:11;;;;;;;45.47;8.25;;;;;;;5.42;100.00;98223.13;2644486;27;20495;-80
2022/09/24 02:32:30;;;;;;;53.13;8.00;;;;;;;5.32;100.00;98224.97;2643604;27;20043;-80
2022/09/24 02:35:40;;;;;;;35.83;7.88;;;;;;;5.35;100.00;98217.97;2611126;28;20048;-79
2022/09/24 02:37:04;;;;;;;40.38;8.00;;;;;;;5.25;100.00;98216.38;2611704;28;20041;-79
2022/09/24 02:38:20;;;;;;;46.35;8.48;;;;;;;5.31;100.00;98213.69;2635037;27;20066;-80
2022/09/24 02:39:36;;;;;;;24.27;7.63;;;;;;;5.32;100.00;98217.19;2643022;27;20059;-79
2022/09/24 02:40:52;;;;;;;22.63;8.10;;;;;;;5.34;100.00;98210.22;2642906;27;20047;-81
2022/09/24 02:42:10;;;;;;;28.40;7.85;;;;;;;5.34;100.00;98210.22;2642676;27;20074;-79
2022/09/24 02:43:25;;;;;;;29.63;8.45;;;;;;;5.36;100.00;98218.84;2643865;27;20047;-80
2022/09/24 02:44:41;;;;;;;23.42;8.35;;;;;;;5.29;100.00;98215.47;2641906;27;20055;-80
2022/09/24 02:45:57;;;;;;;37.13;7.85;;;;;;;5.22;100.00;98212.06;2644095;27;20047;-79
2022/09/24 02:47:13;;;;;;;47.28;8.93;;;;;;;5.33;100.00;98211.94;2643949;27;20043;-81
2022/09/24 02:48:28;;;;;;;24.60;7.80;;;;;;;5.34;100.00;98207.63;2643840;27;20114;-80
2022/09/24 02:49:44;;;;;;;37.30;9.40;;;;;;;5.30;100.00;98204.19;2643909;27;20059;-80
2022/09/24 02:51:00;;;;;;;21.08;8.43;;;;;;;5.22;100.00;98206.00;2643227;27;20056;-79
2022/09/24 02:52:15;;;;;;;46.08;9.63;;;;;;;5.41;100.00;98198.03;2645486;27;20444;-82
2022/09/24 02:53:31;;;;;;;17.63;8.68;;;;;;;5.45;100.00;98192.81;2643460;27;20100;-80
2022/09/24 02:54:49;;;;;;;24.63;8.82;;;;;;;5.51;100.00;98197.91;2642131;27;20055;-79
2022/09/24 02:56:06;;;;;;;35.08;8.82;;;;;;;5.60;100.00;98193.50;2643947;27;20078;-81
2022/09/24 02:57:22;;;;;;;28.73;8.77;;;;;;;5.56;100.00;98200.47;2642199;27;20075;-79
2022/09/24 02:58:37;;;;;;;19.65;8.70;;;;;;;5.61;100.00;98192.63;2643184;27;20043;-80
2022/09/24 02:59:53;;;;;;;16.80;8.52;;;;;;;5.64;100.00;98192.56;2643505;27;20052;-79
2022/09/24 03:01:09;;;;;;;14.70;7.65;;;;;;;5.67;100.00;98196.88;2643199;27;20138;-84
2022/09/24 03:02:24;;;;;;;13.10;7.07;;;;;;;5.41;100.00;98193.69;2643860;27;20513;-79
2022/09/24 03:03:40;;;;;;;14.63;7.53;;;;;;;5.54;100.00;98191.84;2642065;27;20523;-78
2022/09/24 03:04:56;;;;;;;13.40;7.15;;;;;;;5.48;100.00;98192.75;2642061;27;20055;-79
2022/09/24 03:06:14;;;;;;;27.13;8.15;;;;;;;5.48;100.00;98186.69;2643348;27;20497;-83
2022/09/24 03:07:30;;;;;;;32.70;8.07;;;;;;;5.43;100.00;98191.94;2631471;28;20379;-79
2022/09/24 03:08:45;;;;;;;24.88;8.13;;;;;;;5.47;100.00;98190.16;2637064;27;20047;-79
2022/09/24 03:10:01;;;;;;;50.05;10.02;;;;;;;5.42;100.00;98192.81;2642542;27;20047;-79
2022/09/24 03:11:17;;;;;;;60.85;13.00;;;;;;;5.62;100.00;98186.53;2643602;27;20040;-78
2022/09/24 03:12:32;;;;;;;31.90;8.98;;;;;;;5.71;100.00;98182.97;2641935;27;20044;-78
2022/09/24 03:13:48;;;;;;;77.60;9.98;;;;;;;5.62;100.00;98181.34;2643672;27;20383;-79
2022/09/24 03:15:05;;;;;;;29.90;7.70;;;;;;;5.48;100.00;98179.78;2643533;27;20055;-83
2022/09/24 03:16:20;;;;;;;29.38;7.80;;;;;;;5.54;100.00;98176.25;2644161;27;20425;-79
2022/09/24 03:17:36;;;;;;;18.73;7.63;;;;;;;5.67;100.00;98176.94;2644086;27;20062;-79
2022/09/24 03:18:51;;;;;;;19.85;8.40;;;;;;;5.64;100.00;98182.19;2643387;27;20044;-80
2022/09/24 03:20:07;;;;;;;26.80;8.02;;;;;;;5.48;100.00;98182.38;2643926;27;20043;-79
2022/09/24 03:21:23;;;;;;;37.15;8.55;;;;;;;5.43;100.00;98181.53;2644122;27;20055;-79
2022/09/24 03:22:38;;;;;;;38.90;8.65;;;;;;;5.44;100.00;98192.81;2643617;27;20401;-79
2022/09/24 03:23:54;;;;;;;31.02;8.43;;;;;;;5.27;100.00;98185.19;2643552;27;20115;-80
2022/09/24 03:25:10;;;;;;;31.95;8.27;;;;;;;5.23;100.00;98190.44;2642041;27;20142;-81
2022/09/24 03:26:25;;;;;;;39.08;8.23;;;;;;;5.10;100.00;98191.41;2644054;27;20081;-79
2022/09/24 03:27:41;;;;;;;41.08;8.25;;;;;;;5.24;100.00;98193.91;2643507;27;20097;-79
2022/09/24 03:28:56;;;;;;;24.67;8.20;;;;;;;5.56;100.00;98184.00;2642029;27;20494;-79
2022/09/24 03:31:47;;;;;;;55.20;8.40;;;;;;;5.53;100.00;98187.50;2641847;27;20135;-79
2022/09/24 03:33:02;;;;;;;35.25;8.70;;;;;;;5.49;100.00;98189.28;2642308;27;20058;-79
2022/09/24 03:34:18;;;;;;;27.25;8.75;;;;;;;5.56;100.00;98187.47;2643844;27;20047;-79
2022/09/24 03:35:34;;;;;;;17.92;8.15;;;;;;;5.60;100.00;98185.72;2643141;27;20047;-79
2022/09/24 03:36:49;;;;;;;37.80;9.93;;;;;;;5.62;100.00;98189.13;2644350;27;20473;-79
2022/09/24 03:38:05;;;;;;;36.40;9.13;;;;;;;5.49;100.00;98184.09;2643065;27;20044;-79
2022/09/24 03:39:20;;;;;;;19.63;8.52;;;;;;;5.41;100.00;98182.47;2643377;27;20753;-80
2022/09/24 03:40:36;;;;;;;55.38;9.55;;;;;;;5.46;100.00;98180.66;2641857;27;20051;-82
2022/09/24 03:41:52;;;;;;;54.88;9.35;;;;;;;5.31;100.00;98182.56;2643934;27;20129;-82
2022/09/24 03:43:07;;;;;;;68.10;9.23;;;;;;;5.48;100.00;98178.91;2641867;27;20047;-81
2022/09/24 03:44:22;;;;;;;40.85;8.50;;;;;;;5.50;100.00;98182.34;2644362;27;20054;-79
2022/09/24 03:45:38;;;;;;;44.80;9.50;;;;;;;5.45;100.00;98182.41;2643526;27;20504;-79
2022/09/24 03:46:54;;;;;;;67.15;9.73;;;;;;;5.47;100.00;98179.78;2644507;27;20043;-79
2022/09/24 03:48:10;;;;;;;55.50;7.63;;;;;;;5.36;100.00;98177.31;2643207;27;20059;-79
2022/09/24 03:49:25;;;;;;;43.80;8.23;;;;;;;5.40;100.00;98175.56;2644568;27;20787;-78
2022/09/24 03:50:42;;;;;;;32.25;8.55;;;;;;;5.55;100.00;98171.91;2643910;27;20059;-80
2022/09/24 03:51:57;;;;;;;63.92;9.70;;;;;;;5.68;100.00;98172.63;2641508;27;20382;-80
2022/09/24 03:53:13;;;;;;;95.25;10.45;;;;;;;5.56;100.00;98174.50;2643215;27;20043;-79
2022/09/24 03:54:29;;;;;;;62.45;8.93;;;;;;;5.55;100.00;98172.78;2643821;27;20055;-80
2022/09/24 03:55:54;;;;;;;56.28;7.72;;;;;;;5.32;100.00;98175.63;2644633;27;20133;-78
2022/09/24 03:57:13;;;;;;;65.95;8.90;;;;;;;5.24;100.00;98173.13;2643831;27;20130;-79
2022/09/24 03:58:30;;;;;;;93.95;9.85;;;;;;;5.44;100.00;98175.47;2643058;27;20652;-79
2022/09/24 03:59:46;;;;;;;92.10;9.63;;;;;;;5.45;100.00;98172.03;2631953;28;20051;-79
2022/09/24 04:01:02;;;;;;;40.85;9.15;;;;;;;5.51;100.00;98164.16;2634933;27;20055;-79
2022/09/24 04:02:18;;;;;;;18.83;9.00;;;;;;;5.64;100.00;98164.84;2643330;27;20409;-79
2022/09/24 04:03:35;;;;;;;95.22;11.50;;;;;;;5.66;100.00;98162.25;2643811;27;20151;-79
2022/09/24 04:04:51;;;;;;;158.85;13.20;;;;;;;5.64;100.00;98161.41;2641951;27;20082;-80
2022/09/24 04:06:07;;;;;;;135.63;17.58;;;;;;;5.63;100.00;98163.13;2644567;27;20126;-79
2022/09/24 04:07:22;;;;;;;113.50;12.80;;;;;;;5.76;100.00;98161.25;2643480;27;20054;-83
2022/09/24 04:08:38;;;;;;;98.93;11.48;;;;;;;5.64;100.00;98158.81;2642058;27;20122;-79
2022/09/24 04:09:54;;;;;;;43.08;8.57;;;;;;;5.70;100.00;98157.88;2632302;28;20047;-79
2022/09/24 04:11:09;;;;;;;56.60;8.70;;;;;;;5.69;100.00;98169.16;2634774;27;20062;-79
2022/09/24 04:12:25;;;;;;;52.75;8.60;;;;;;;5.75;100.00;98162.13;2641932;27;20043;-79
2022/09/24 04:13:40;;;;;;;24.23;7.10;;;;;;;5.64;100.00;98169.19;2643001;27;20100;-79
2022/09/24 04:14:56;;;;;;;108.60;9.15;;;;;;;5.72;100.00;98164.75;2642856;27;20040;-79
2022/09/24 04:16:12;;;;;;;81.45;9.63;;;;;;;5.81;100.00;98156.00;2642438;27;20480;-79
2022/09/24 04:17:30;;;;;;;83.85;9.60;;;;;;;5.74;100.00;98157.81;2642365;27;20117;-78
2022/09/24 04:18:46;;;;;;;95.90;9.85;;;;;;;5.65;100.00;98166.56;2642161;27;20161;-79
2022/09/24 04:20:02;;;;;;;82.72;9.15;;;;;;;5.62;100.00;98158.81;2643073;27;20043;-79
2022/09/24 04:21:18;;;;;;;47.15;7.85;;;;;;;5.24;100.00;98157.56;2644051;27;20059;-82
2022/09/24 04:22:33;;;;;;;44.78;8.30;;;;;;;5.30;100.00;98154.00;2641377;27;20047;-80
2022/09/24 04:23:49;;;;;;;79.50;9.52;;;;;;;5.54;100.00;98157.19;2641314;27;20063;-79
2022/09/24 04:25:05;;;;;;;57.45;8.48;;;;;;;5.46;100.00;98154.69;2642478;27;20051;-79
2022/09/24 04:26:21;;;;;;;56.35;8.65;;;;;;;5.52;100.00;98157.22;2641936;27;20062;-79
2022/09/24 04:27:37;;;;;;;67.03;9.05;;;;;;;5.63;100.00;98155.34;2640403;27;20039;-86
2022/09/24 04:28:52;;;;;;;54.55;9.40;;;;;;;5.75;100.00;98148.28;2643763;27;20073;-78
2022/09/24 04:30:08;;;;;;;73.20;10.40;;;;;;;5.84;100.00;98152.47;2644005;27;20054;-79
2022/09/24 04:31:26;;;;;;;135.32;13.20;;;;;;;5.75;100.00;98153.47;2643265;27;20078;-79
2022/09/24 04:32:41;;;;;;;114.18;10.63;;;;;;;5.76;100.00;98150.88;2642161;27;20493;-81
2022/09/24 04:33:57;;;;;;;20.17;8.35;;;;;;;5.59;100.00;98152.81;2629338;28;20051;-79
2022/09/24 04:35:12;;;;;;;76.03;9.88;;;;;;;5.63;100.00;98150.16;2634303;27;20047;-81
2022/09/24 04:36:28;;;;;;;37.10;8.75;;;;;;;5.70;100.00;98152.69;2641823;27;20517;-80
2022/09/24 04:37:45;;;;;;;30.52;7.97;;;;;;;5.70;100.00;98152.69;2642175;27;20047;-79
2022/09/24 04:39:02;;;;;;;44.70;8.27;;;;;;;5.64;100.00;98157.06;2642661;27;20059;-82
2022/09/24 04:40:18;;;;;;;64.60;8.77;;;;;;;5.59;100.00;98158.03;2641387;27;20126;-79
2022/09/24 04:41:34;;;;;;;62.95;9.07;;;;;;;5.65;100.00;98156.19;2643120;27;20382;-82
2022/09/24 04:42:49;;;;;;;42.40;7.65;;;;;;;5.77;100.00;98162.97;2642223;27;20098;-80
2022/09/24 04:44:05;;;;;;;55.58;8.23;;;;;;;5.67;100.00;98148.38;2643724;27;20043;-80
2022/09/24 04:45:23;;;;;;;60.38;8.73;;;;;;;5.68;100.00;98157.03;2642621;27;20047;-82
2022/09/24 04:46:39;;;;;;;65.78;8.55;;;;;;;5.67;100.00;98155.31;2641579;27;20500;-79
2022/09/24 04:47:56;;;;;;;87.70;9.27;;;;;;;5.45;100.00;98161.63;2642236;27;20043;-78
2022/09/24 04:49:13;;;;;;;102.40;12.10;;;;;;;5.62;100.00;98160.56;2642488;27;20048;-80
2022/09/24 04:50:32;;;;;;;112.38;10.85;;;;;;;5.64;100.00;98169.19;2643325;27;20614;-80
2022/09/24 04:51:48;;;;;;;96.10;9.98;;;;;;;5.55;100.00;98164.97;2641871;27;20047;-81
2022/09/24 04:53:03;;;;;;;81.68;11.48;;;;;;;5.67;100.00;98163.97;2640962;27;20405;-78
2022/09/24 04:54:19;;;;;;;88.95;13.10;;;;;;;5.57;100.00;98167.53;2642488;27;20043;-80
2022/09/24 04:55:35;;;;;;;85.00;11.20;;;;;;;5.64;100.00;98169.19;2642861;27;20048;-79
2022/09/24 04:56:51;;;;;;;51.60;8.45;;;;;;;5.61;100.00;98164.06;2641550;27;20051;-80
2022/09/24 04:58:08;;;;;;;65.45;9.77;;;;;;;5.70;100.00;98166.50;2642392;28;20795;-79
2022/09/24 04:59:23;;;;;;;110.32;12.52;;;;;;;5.68;100.00;98177.81;2640107;28;20485;-78
2022/09/24 05:01:15;;;;;;;;;;;;;;;;;;;;;
2022/09/24 05:02:57;;;;;;;84.72;9.35;;;;;;;5.57;100.00;98160.63;2642253;28;20054;-78
2022/09/24 05:04:17;;;;;;;80.00;8.10;;;;;;;5.31;100.00;98164.38;2629308;28;20036;-81
2022/09/24 05:05:34;;;;;;;136.60;10.07;;;;;;;5.25;100.00;98164.47;2623939;28;20759;-79
2022/09/24 05:06:51;;;;;;;93.90;8.48;;;;;;;5.17;100.00;98164.56;2635579;28;20051;-81
2022/09/24 05:08:07;;;;;;;127.40;10.00;;;;;;;5.23;100.00;98163.59;2631403;28;20081;-78
2022/09/24 05:09:22;;;;;;;49.75;7.15;;;;;;;5.14;100.00;98156.78;2634175;28;20043;-78
2022/09/24 05:10:38;;;;;;;162.68;10.43;;;;;;;5.20;100.00;98161.03;2642083;28;20540;-79
2022/09/24 05:11:57;;;;;;;137.43;11.75;;;;;;;5.24;100.00;98162.75;2642249;28;20492;-78
2022/09/24 05:13:13;;;;;;;158.88;10.13;;;;;;;4.92;100.00;98162.19;2641293;28;20401;-80
2022/09/24 05:14:29;;;;;;;151.63;12.48;;;;;;;5.25;100.00;98159.28;2641648;28;20047;-78
2022/09/24 05:15:44;;;;;;;62.35;8.15;;;;;;;5.29;100.00;98165.25;2642084;28;20505;-77
2022/09/24 05:17:00;;;;;;;20.00;6.82;;;;;;;5.25;100.00;98163.59;2640502;28;20055;-78
2022/09/24 05:18:16;;;;;;;24.58;7.28;;;;;;;5.28;100.00;98168.75;2642104;28;20048;-77
2022/09/24 05:19:32;;;;;;;59.67;7.72;;;;;;;5.26;100.00;98167.91;2644083;27;20111;-78
2022/09/24 05:20:48;;;;;;;19.60;7.38;;;;;;;5.27;100.00;98161.84;2645874;27;20047;-79
2022/09/24 05:22:03;;;;;;;11.52;6.95;;;;;;;5.15;100.00;98165.44;2643908;27;20194;-80
2022/09/24 05:23:19;;;;;;;12.77;7.28;;;;;;;5.17;100.00;98155.88;2644242;27;20107;-79
2022/09/24 05:24:35;;;;;;;15.32;8.85;;;;;;;5.24;100.00;98157.56;2643175;27;20040;-79
2022/09/24 05:27:24;;;;;;;19.52;8.75;;;;;;;5.37;100.00;98161.69;2643774;27;20058;-82
2022/09/24 05:28:41;;;;;;;21.33;8.75;;;;;;;5.39;100.00;98155.66;2644404;27;20058;-79
2022/09/24 05:29:58;;;;;;;17.10;8.63;;;;;;;5.45;100.00;98155.56;2644308;27;20067;-79
2022/09/24 05:31:14;;;;;;;19.42;8.75;;;;;;;5.51;100.00;98155.50;2644401;27;20054;-83
2022/09/24 05:32:30;;;;;;;31.25;8.40;;;;;;;5.43;100.00;98153.00;2643844;27;20044;-80
2022/09/24 05:33:46;;;;;;;27.85;8.02;;;;;;;5.61;100.00;98151.06;2643298;27;20052;-79
2022/09/24 05:35:02;;;;;;;21.10;7.45;;;;;;;5.59;100.00;98145.03;2644553;27;20599;-87
2022/09/24 05:36:18;;;;;;;24.98;7.43;;;;;;;5.58;100.00;98145.88;2643420;27;20107;-87
2022/09/24 05:37:35;;;;;;;52.85;10.27;;;;;;;5.74;100.00;98154.34;2643908;27;20162;-88
2022/09/24 05:38:51;;;;;;;109.68;9.40;;;;;;;5.55;100.00;98157.19;2644018;27;20043;-87
2022/09/24 05:41:42;;;;;;;173.73;13.88;;;;;;;5.73;100.00;98163.91;2644110;27;20137;-87
2022/09/24 05:43:00;;;;;;;69.95;8.68;;;;;;;5.53;100.00;98164.16;2642773;27;20049;-88
2022/09/24 05:44:20;;;;;;;81.68;8.30;;;;;;;5.56;100.00;98171.03;2643660;27;20043;-92
2022/09/24 05:45:36;;;;;;;123.05;10.30;;;;;;;5.56;100.00;98176.22;2643716;27;20050;-85
2022/09/24 05:46:51;;;;;;;46.03;7.82;;;;;;;5.64;100.00;98182.19;2645531;27;20047;-93
2022/09/24 05:48:07;;;;;;;45.42;6.55;;;;;;;5.72;100.00;98177.75;2650183;27;20490;-96
2022/09/24 05:49:23;;;;;;;62.85;8.20;;;;;;;5.89;100.00;98176.69;2653530;27;20050;-96
2022/09/24 05:50:38;;;;;;;85.13;8.85;;;;;;;5.63;100.00;98173.53;2652678;27;20413;-96
2022/09/24 05:51:55;;;;;;;52.13;8.00;;;;;;;5.62;100.00;98178.75;2655595;27;20051;-96
2022/09/24 05:53:11;;;;;;;98.68;10.43;;;;;;;5.82;100.00;98173.31;2657509;27;20103;-96
2022/09/24 05:54:27;;;;;;;163.55;12.52;;;;;;;5.93;100.00;98173.16;2658789;27;20044;-96
2022/09/24 05:55:43;;;;;;;127.28;10.30;;;;;;;5.87;100.00;98174.09;2657435;27;20055;-96
2022/09/24 05:56:58;;;;;;;117.70;10.25;;;;;;;5.77;100.00;98178.56;2657101;27;20058;-96
2022/09/24 05:58:14;;;;;;;70.65;7.80;;;;;;;5.83;100.00;98179.34;2651282;27;20607;-96
2022/09/24 05:59:30;;;;;;;133.57;12.38;;;;;;;5.90;100.00;98175.81;2652600;27;20058;-96
2022/09/24 06:00:48;;;;;;;130.40;11.13;;;;;;;5.93;100.00;98176.59;2657996;27;20047;-96
2022/09/24 06:02:04;;;;;;;51.80;8.60;;;;;;;5.91;100.00;98180.13;2651000;27;20043;-95
2022/09/24 06:03:20;;;;;;;91.00;11.00;;;;;;;5.91;100.00;98180.13;2654789;27;20167;-90
2022/09/24 06:04:35;;;;;;;148.82;12.35;;;;;;;6.01;100.00;98176.56;2650974;27;20146;-96
2022/09/24 06:05:51;;;;;;;29.58;9.23;;;;;;;5.98;100.00;98175.69;2648479;27;20639;-96
2022/09/24 06:07:07;;;;;;;66.70;8.90;;;;;;;5.91;100.00;98183.56;2649961;27;20558;-94
2022/09/24 06:08:22;;;;;;;51.13;8.23;;;;;;;6.03;100.00;98187.78;2654325;27;20039;-94
2022/09/24 06:09:38;;;;;;;77.45;8.98;;;;;;;6.04;100.00;98186.91;2652074;27;20393;-95
2022/09/24 06:11:01;;;;;;;133.23;12.65;;;;;;;6.18;100.00;98183.25;2653368;27;20047;-95
2022/09/24 06:12:17;;;;;;;73.15;10.02;;;;;;;6.12;100.00;98185.91;2648919;27;20047;-94
2022/09/24 06:13:34;;;;;;;124.38;12.07;;;;;;;6.19;100.00;98183.22;2650829;27;20103;-96